Minburn, IA (50167)

9:47 AM CDT on August 28, 2015 (GMT -0500)
Stine Seed Co. | | Change Station
CLOSE
Current Station
Personal Weather Station
Location: Adel, IA
Elevation: 1100 ft
Nearby Weather Stations

Elev 1100 ft 41.71 °N, 94.06 °W | Updated 35 seconds ago

Rain
Rain
63.6 °F
Feels Like 63.6 °F
N
13.0
Wind Variable Wind from East
Gusts 13.0 mph

Today
High -- | Low -- °F
--% Chance of Precip.
Yesterday
High -- | Low -- °F
Precip. -- in
6:37 AM 7:56 PM
Waxing Gibbous, 98% visible
Pressure 29.90 in
Visibility 1.5 miles
Clouds Overcast 600 ft
Dew Point 63 °F
Humidity 97%
Rainfall 0.60 in
Snow Depth Not available.
UV 0.0 out of 12
Pollen 1.10 out of 12
Air Quality Not available.
Flu Activity Not available.
METAR KPRO 281435Z AUTO 15014G21KT 1 1/2SM +RA OVC006 18/18 A2990 RMK AO2 P0037 T01790176
Pressure 29.90 in
Visibility 1.5 miles
Clouds Overcast 600 ft
Dew Point 63 °F
Humidity 97%
Rainfall 0.60 in
Snow Depth Not available.
UV 0.0 out of 12
Pollen 1.10 out of 12
Air Quality Not available.
Flu Activity Not available.
METAR KPRO 281435Z AUTO 15014G21KT 1 1/2SM +RA OVC006 18/18 A2990 RMK AO2 P0037 T01790176

10-Day Weather Forecast

×

Almanac

Astronomy

Aug. 28, 2015 Rise Set
Actual Time
Civil Twilight
Nautical Twilight
Astronomical Twilight
Moon
Length of Visible Light
Length of Day
Tomorrow will be .
, % of the Moon is Illuminated

Today's Extremes

State Highs State Lows

Community

WunderPhotos

Upload Photos

1,850,387 photos uploaded!

WunderBlogs® & News

Nearby

Air Quality

  Air Quality AQ Index Pollutant
Not available.

Snow Depth

Station Depth Elevation

Earthquake Activity

City Distance Mag. Time & Date
Minimum magnitude displayed is 2.5.

Coastal Water Temperatures

Place Temperature

Stations

Nearby Weather Stations

Station Location Temp. Windchill Dew Point Humidity Wind Precip. Elev Updated Type